sensor_id;sensor_type;location;lat;lon;timestamp;P1;durP1;ratioP1;P2;durP2;ratioP2
30966;SDS011;17649;51.836;8.330;2022-09-12T00:01:37;32.13;;;22.88;;
30966;SDS011;17649;51.836;8.330;2022-09-12T00:08:59;29.63;;;22.30;;
30966;SDS011;17649;51.836;8.330;2022-09-12T00:16:26;31.80;;;22.20;;
30966;SDS011;17649;51.836;8.330;2022-09-12T00:19:41;32.28;;;22.58;;
30966;SDS011;17649;51.836;8.330;2022-09-12T00:23:19;32.72;;;23.83;;
30966;SDS011;17649;51.836;8.330;2022-09-12T00:30:06;32.75;;;22.05;;
30966;SDS011;17649;51.836;8.330;2022-09-12T00:33:25;31.50;;;20.40;;
30966;SDS011;17649;51.836;8.330;2022-09-12T00:40:01;34.47;;;20.92;;
30966;SDS011;17649;51.836;8.330;2022-09-12T00:50:51;41.13;;;26.23;;
30966;SDS011;17649;51.836;8.330;2022-09-12T00:54:08;37.92;;;25.00;;
30966;SDS011;17649;51.836;8.330;2022-09-12T01:01:16;38.65;;;26.50;;
30966;SDS011;17649;51.836;8.330;2022-09-12T01:04:51;35.17;;;23.10;;
30966;SDS011;17649;51.836;8.330;2022-09-12T01:08:12;31.42;;;23.55;;
30966;SDS011;17649;51.836;8.330;2022-09-12T01:11:27;34.08;;;24.08;;
30966;SDS011;17649;51.836;8.330;2022-09-12T01:18:56;37.25;;;25.67;;
30966;SDS011;17649;51.836;8.330;2022-09-12T01:36:56;35.58;;;20.75;;
30966;SDS011;17649;51.836;8.330;2022-09-12T01:56:36;34.65;;;24.45;;
30966;SDS011;17649;51.836;8.330;2022-09-12T02:00:04;35.35;;;24.63;;
30966;SDS011;17649;51.836;8.330;2022-09-12T02:03:18;33.30;;;23.77;;
30966;SDS011;17649;51.836;8.330;2022-09-12T06:05:05;34.88;;;19.20;;
30966;SDS011;17649;51.836;8.330;2022-09-12T06:58:21;39.95;;;21.92;;
30966;SDS011;17649;51.836;8.330;2022-09-12T07:01:58;41.70;;;22.75;;
30966;SDS011;17649;51.836;8.330;2022-09-12T07:06:44;34.53;;;21.20;;
30966;SDS011;17649;51.836;8.330;2022-09-12T07:10:06;37.40;;;20.85;;
30966;SDS011;17649;51.836;8.330;2022-09-12T07:14:01;31.45;;;18.88;;
30966;SDS011;17649;51.836;8.330;2022-09-12T07:17:35;29.55;;;18.25;;
30966;SDS011;17649;51.836;8.330;2022-09-12T07:32:50;32.42;;;19.80;;
30966;SDS011;17649;51.836;8.330;2022-09-12T07:40:32;28.92;;;17.90;;
30966;SDS011;17649;51.836;8.330;2022-09-12T07:51:35;30.20;;;16.60;;
30966;SDS011;17649;51.836;8.330;2022-09-12T08:08:01;19.98;;;13.25;;
30966;SDS011;17649;51.836;8.330;2022-09-12T08:19:48;17.65;;;11.60;;
30966;SDS011;17649;51.836;8.330;2022-09-12T08:23:15;13.27;;;10.13;;
30966;SDS011;17649;51.836;8.330;2022-09-12T08:26:22;20.45;;;11.98;;
30966;SDS011;17649;51.836;8.330;2022-09-12T08:29:26;15.10;;;11.18;;
30966;SDS011;17649;51.836;8.330;2022-09-12T08:41:31;17.33;;;10.57;;
30966;SDS011;17649;51.836;8.330;2022-09-12T09:21:55;15.73;;;10.95;;
30966;SDS011;17649;51.836;8.330;2022-09-12T09:25:13;16.52;;;10.52;;
30966;SDS011;17649;51.836;8.330;2022-09-12T09:46:43;15.75;;;10.25;;
30966;SDS011;17649;51.836;8.330;2022-09-12T09:53:51;15.15;;;10.38;;
30966;SDS011;17649;51.836;8.330;2022-09-12T10:05:06;17.17;;;11.18;;
30966;SDS011;17649;51.836;8.330;2022-09-12T10:11:57;18.88;;;10.50;;
30966;SDS011;17649;51.836;8.330;2022-09-12T10:15:29;17.73;;;10.68;;
30966;SDS011;17649;51.836;8.330;2022-09-12T10:19:10;17.08;;;11.40;;
30966;SDS011;17649;51.836;8.330;2022-09-12T10:23:35;16.02;;;10.55;;
30966;SDS011;17649;51.836;8.330;2022-09-12T10:26:36;17.95;;;10.75;;
30966;SDS011;17649;51.836;8.330;2022-09-12T10:29:45;13.20;;;9.23;;
30966;SDS011;17649;51.836;8.330;2022-09-12T10:33:16;15.85;;;10.55;;
30966;SDS011;17649;51.836;8.330;2022-09-12T10:36:20;16.73;;;10.07;;
30966;SDS011;17649;51.836;8.330;2022-09-12T10:39:23;20.35;;;11.93;;
30966;SDS011;17649;51.836;8.330;2022-09-12T10:42:45;13.05;;;9.48;;
30966;SDS011;17649;51.836;8.330;2022-09-12T10:45:48;18.50;;;11.65;;
30966;SDS011;17649;51.836;8.330;2022-09-12T10:48:51;16.85;;;11.23;;
30966;SDS011;17649;51.836;8.330;2022-09-12T10:52:23;18.60;;;10.88;;
30966;SDS011;17649;51.836;8.330;2022-09-12T10:55:31;15.32;;;10.43;;
30966;SDS011;17649;51.836;8.330;2022-09-12T11:38:56;9.85;;;6.95;;
30966;SDS011;17649;51.836;8.330;2022-09-12T11:42:33;9.43;;;7.40;;
30966;SDS011;17649;51.836;8.330;2022-09-12T11:50:25;8.95;;;6.35;;
30966;SDS011;17649;51.836;8.330;2022-09-12T11:53:49;12.82;;;7.20;;
30966;SDS011;17649;51.836;8.330;2022-09-12T11:57:32;10.43;;;6.53;;
30966;SDS011;17649;51.836;8.330;2022-09-12T12:20:23;9.27;;;6.25;;
30966;SDS011;17649;51.836;8.330;2022-09-12T12:43:29;7.68;;;6.18;;
30966;SDS011;17649;51.836;8.330;2022-09-12T12:55:34;7.15;;;4.88;;
30966;SDS011;17649;51.836;8.330;2022-09-12T13:00:23;7.15;;;4.82;;
30966;SDS011;17649;51.836;8.330;2022-09-12T13:18:55;6.97;;;4.65;;
30966;SDS011;17649;51.836;8.330;2022-09-12T13:30:42;4.13;;;3.17;;
30966;SDS011;17649;51.836;8.330;2022-09-12T13:34:29;4.60;;;3.28;;
30966;SDS011;17649;51.836;8.330;2022-09-12T13:41:29;5.50;;;3.25;;
30966;SDS011;17649;51.836;8.330;2022-09-12T13:48:23;4.97;;;3.30;;
30966;SDS011;17649;51.836;8.330;2022-09-12T13:51:29;10.10;;;3.22;;
30966;SDS011;17649;51.836;8.330;2022-09-12T14:01:37;6.30;;;3.72;;
30966;SDS011;17649;51.836;8.330;2022-09-12T14:05:18;5.63;;;3.38;;
30966;SDS011;17649;51.836;8.330;2022-09-12T14:16:36;3.92;;;2.70;;
30966;SDS011;17649;51.836;8.330;2022-09-12T14:20:10;3.85;;;3.05;;
30966;SDS011;17649;51.836;8.330;2022-09-12T14:23:26;5.05;;;3.50;;
30966;SDS011;17649;51.836;8.330;2022-09-12T14:26:38;4.03;;;3.47;;
30966;SDS011;17649;51.836;8.330;2022-09-12T14:29:45;4.47;;;4.05;;
30966;SDS011;17649;51.836;8.330;2022-09-12T14:39:54;3.67;;;3.33;;
30966;SDS011;17649;51.836;8.330;2022-09-12T14:47:23;4.28;;;3.60;;
30966;SDS011;17649;51.836;8.330;2022-09-12T14:50:55;4.13;;;3.60;;
30966;SDS011;17649;51.836;8.330;2022-09-12T15:08:48;4.65;;;3.53;;
30966;SDS011;17649;51.836;8.330;2022-09-12T15:15:20;4.60;;;4.15;;
30966;SDS011;17649;51.836;8.330;2022-09-12T15:18:30;4.57;;;3.30;;
30966;SDS011;17649;51.836;8.330;2022-09-12T15:21:32;3.75;;;3.30;;
30966;SDS011;17649;51.836;8.330;2022-09-12T15:24:42;4.18;;;3.78;;
30966;SDS011;17649;51.836;8.330;2022-09-12T15:27:45;3.55;;;3.25;;
30966;SDS011;17649;51.836;8.330;2022-09-12T15:30:55;4.40;;;3.47;;
30966;SDS011;17649;51.836;8.330;2022-09-12T15:34:00;5.28;;;3.83;;
30966;SDS011;17649;51.836;8.330;2022-09-12T15:40:06;3.80;;;3.40;;
30966;SDS011;17649;51.836;8.330;2022-09-12T15:43:12;4.45;;;3.72;;
30966;SDS011;17649;51.836;8.330;2022-09-12T15:46:17;4.63;;;3.70;;
30966;SDS011;17649;51.836;8.330;2022-09-12T15:49:29;5.20;;;3.70;;
30966;SDS011;17649;51.836;8.330;2022-09-12T15:52:32;3.80;;;3.30;;
30966;SDS011;17649;51.836;8.330;2022-09-12T15:55:34;6.25;;;4.32;;
30966;SDS011;17649;51.836;8.330;2022-09-12T15:58:39;5.55;;;4.75;;
30966;SDS011;17649;51.836;8.330;2022-09-12T16:01:51;5.53;;;3.97;;
30966;SDS011;17649;51.836;8.330;2022-09-12T16:04:54;5.43;;;4.05;;
30966;SDS011;17649;51.836;8.330;2022-09-12T16:07:59;6.55;;;3.95;;
30966;SDS011;17649;51.836;8.330;2022-09-12T16:11:25;7.85;;;5.10;;
30966;SDS011;17649;51.836;8.330;2022-09-12T16:14:27;7.20;;;4.60;;
30966;SDS011;17649;51.836;8.330;2022-09-12T16:17:30;9.35;;;4.63;;
30966;SDS011;17649;51.836;8.330;2022-09-12T16:20:37;6.13;;;4.80;;
30966;SDS011;17649;51.836;8.330;2022-09-12T16:23:44;6.60;;;4.55;;
30966;SDS011;17649;51.836;8.330;2022-09-12T16:27:16;6.65;;;4.30;;
30966;SDS011;17649;51.836;8.330;2022-09-12T16:30:19;6.03;;;4.10;;
30966;SDS011;17649;51.836;8.330;2022-09-12T16:33:23;5.57;;;4.50;;
30966;SDS011;17649;51.836;8.330;2022-09-12T16:36:34;6.30;;;4.40;;
30966;SDS011;17649;51.836;8.330;2022-09-12T16:39:45;39.00;;;6.32;;
30966;SDS011;17649;51.836;8.330;2022-09-12T16:42:48;6.83;;;4.40;;
30966;SDS011;17649;51.836;8.330;2022-09-12T16:46:01;8.68;;;4.78;;
30966;SDS011;17649;51.836;8.330;2022-09-12T16:49:10;8.97;;;4.57;;
30966;SDS011;17649;51.836;8.330;2022-09-12T16:52:33;6.40;;;4.80;;
30966;SDS011;17649;51.836;8.330;2022-09-12T16:55:35;9.82;;;4.00;;
30966;SDS011;17649;51.836;8.330;2022-09-12T16:59:05;7.10;;;4.32;;
30966;SDS011;17649;51.836;8.330;2022-09-12T17:05:43;7.32;;;4.20;;
30966;SDS011;17649;51.836;8.330;2022-09-12T17:09:16;7.45;;;4.70;;
30966;SDS011;17649;51.836;8.330;2022-09-12T17:12:21;5.07;;;4.32;;
30966;SDS011;17649;51.836;8.330;2022-09-12T17:15:23;5.45;;;4.82;;
30966;SDS011;17649;51.836;8.330;2022-09-12T17:18:25;7.90;;;4.63;;
30966;SDS011;17649;51.836;8.330;2022-09-12T17:21:33;9.00;;;4.80;;
30966;SDS011;17649;51.836;8.330;2022-09-12T17:27:36;7.80;;;5.05;;
30966;SDS011;17649;51.836;8.330;2022-09-12T17:30:38;7.85;;;5.13;;
30966;SDS011;17649;51.836;8.330;2022-09-12T17:33:39;8.97;;;5.10;;
30966;SDS011;17649;51.836;8.330;2022-09-12T17:39:58;12.45;;;5.30;;
30966;SDS011;17649;51.836;8.330;2022-09-12T17:43:02;8.45;;;6.15;;
30966;SDS011;17649;51.836;8.330;2022-09-12T17:46:07;8.37;;;5.70;;
30966;SDS011;17649;51.836;8.330;2022-09-12T17:49:13;7.35;;;5.88;;
30966;SDS011;17649;51.836;8.330;2022-09-12T17:52:21;10.77;;;6.47;;
30966;SDS011;17649;51.836;8.330;2022-09-12T17:55:34;9.35;;;5.97;;
30966;SDS011;17649;51.836;8.330;2022-09-12T17:58:41;13.02;;;6.72;;
30966;SDS011;17649;51.836;8.330;2022-09-12T18:01:50;8.52;;;6.00;;
30966;SDS011;17649;51.836;8.330;2022-09-12T18:05:13;9.45;;;6.68;;
30966;SDS011;17649;51.836;8.330;2022-09-12T18:08:23;11.68;;;7.00;;
30966;SDS011;17649;51.836;8.330;2022-09-12T18:11:26;10.47;;;6.20;;
30966;SDS011;17649;51.836;8.330;2022-09-12T18:14:28;9.90;;;6.47;;
30966;SDS011;17649;51.836;8.330;2022-09-12T18:17:33;9.55;;;5.88;;
30966;SDS011;17649;51.836;8.330;2022-09-12T18:24:01;9.05;;;6.03;;
30966;SDS011;17649;51.836;8.330;2022-09-12T18:27:06;11.55;;;7.50;;
30966;SDS011;17649;51.836;8.330;2022-09-12T18:30:15;9.75;;;6.72;;
30966;SDS011;17649;51.836;8.330;2022-09-12T18:33:43;12.68;;;7.53;;
30966;SDS011;17649;51.836;8.330;2022-09-12T18:37:03;10.25;;;7.20;;
30966;SDS011;17649;51.836;8.330;2022-09-12T18:40:18;12.85;;;6.78;;
30966;SDS011;17649;51.836;8.330;2022-09-12T18:43:23;9.27;;;6.97;;
30966;SDS011;17649;51.836;8.330;2022-09-12T18:46:32;13.15;;;7.10;;
30966;SDS011;17649;51.836;8.330;2022-09-12T18:49:34;18.90;;;7.10;;
30966;SDS011;17649;51.836;8.330;2022-09-12T18:52:45;10.70;;;7.60;;
30966;SDS011;17649;51.836;8.330;2022-09-12T18:55:49;12.68;;;7.60;;
30966;SDS011;17649;51.836;8.330;2022-09-12T18:59:05;9.80;;;7.55;;
30966;SDS011;17649;51.836;8.330;2022-09-12T19:02:10;13.27;;;8.13;;
30966;SDS011;17649;51.836;8.330;2022-09-12T19:05:21;13.23;;;7.70;;
30966;SDS011;17649;51.836;8.330;2022-09-12T19:43:46;14.77;;;9.07;;
30966;SDS011;17649;51.836;8.330;2022-09-12T19:47:15;18.33;;;10.27;;
30966;SDS011;17649;51.836;8.330;2022-09-12T20:28:17;20.23;;;11.38;;
30966;SDS011;17649;51.836;8.330;2022-09-12T20:31:39;24.92;;;12.48;;
30966;SDS011;17649;51.836;8.330;2022-09-12T22:21:24;14.05;;;8.55;;
30966;SDS011;17649;51.836;8.330;2022-09-12T22:24:24;12.38;;;8.80;;
30966;SDS011;17649;51.836;8.330;2022-09-12T22:27:27;12.88;;;8.70;;
30966;SDS011;17649;51.836;8.330;2022-09-12T22:30:28;13.23;;;8.80;;
30966;SDS011;17649;51.836;8.330;2022-09-12T22:33:29;12.23;;;7.55;;
30966;SDS011;17649;51.836;8.330;2022-09-12T22:36:29;13.77;;;8.60;;
30966;SDS011;17649;51.836;8.330;2022-09-12T22:39:33;15.75;;;8.40;;
